Historyczne dane pomiarowe

Dodano dane terminowe – wersja testowa.

Dane z okresu 1951-2019

Wersja bazy: 1.34 [2019-03-16, lista zmian], aktualizacja planowana na 2019-04-15

Dane meteo z obszaru Polski uzyskane na podstawie danych udostępnionych przez Instytut Meteorologii i Gospodarki Wodnej – Państwowy Instytut Badawczy.

 

Wybierz Datę:    

       

TemperaturaWilgotnośćWiatrCiśnienieOpadyŚniegCzas trwania zjawisk
 Stacja t tx tn tng RH VA  wxwx mslp ppp RRR   cm mm wxwxwxwxwxwxwx
1956-11-09 -1.7 1.8 -3.7 -8.0 76.5- 2.0 4.3---- 0.0------------
1956-11-08 -1.0 4.1 -4.7 -7.4 81.8- 2.7 0.7---- 0.0------------
1956-11-07 1.6 3.3 0.1 0.0 89.0- 7.0 4.7---- 0.0------------
1956-11-06 1.2 3.9 0.3 -1.5 92.3- 5.3 7.7---- 4.3------------
1956-11-05 5.0 8.2 1.1 0.1 85.8- 6.7 8.7---- 0.7------------
1956-11-04 0.7 4.7 -4.6 -7.8 82.8- 6.3 3.3---- 0.1------------
1956-11-03 -1.0 4.2 -3.2 -4.3 85.3- 3.7 2.3---- 0.0------------
1956-11-02 0.8 3.2 -0.1 0.1 95.8- 7.3 3.0---- 0.3------------
1956-11-01 -1.0 2.4 -8.6-11.5 71.3- 6.0 3.0---- 0.3------------
1956-10-31 -5.0 -0.5 -6.0 -6.8 83.0- 2.0 5.0---- 0.0------------
1956-10-30 0.4 5.9 -0.7 1.7 92.0- 8.0 10.3---- 0.3------------
1956-10-29 5.4 8.2 5.0 5.0 97.0- 8.0 4.0---- 6.2------------
1956-10-28 8.6 9.9 8.0 8.8 97.5- 8.0 6.7---- 10.2------------
1956-10-27 8.6 9.8 5.9 5.4 97.0- 8.0 7.3---- 4.2------------
1956-10-26 7.1 9.7 5.9 6.1 91.0- 8.0 1.0---- 6.8------------
1956-10-25 10.5 13.9 9.0 7.0 80.8- 5.0 4.3---- 2.3------------
1956-10-24 11.2 16.7 5.4 2.4 81.8- 5.0 4.0---- 0.0------------
1956-10-23 8.8 13.9 6.2 9.2 81.5- 3.3 3.3---- 0.0------------
1956-10-22 12.3 15.6 6.1 4.2 82.0- 6.7 5.3---- 0.0------------
1956-10-21 12.0 17.1 6.8 3.8 87.5- 2.3 3.7---- 0.0------------
1956-10-20 10.8 13.3 6.7 6.0 89.5- 7.7 2.7---- 0.0------------
1956-10-19 10.8 15.4 8.2 10.8 89.8- 7.0 4.0---- 0.0------------
1956-10-18 11.8 14.1 6.7 4.4 92.3- 7.7 4.7---- 3.6------------
1956-10-17 8.4 16.5 2.0 -2.2 66.5- 2.3 1.7---- 0.0------------
1956-10-16 5.7 14.1 -1.9 -4.7 85.0- 0.0 0.7---- 0.0------------
1956-10-15 4.1 11.8 -0.3 -4.5 85.8- 0.3 1.0---- 0.0------------
1956-10-14 7.8 13.4 4.0 8.8 73.8- 2.3 7.7---- 0.0------------
1956-10-13 11.6 13.0 8.6 6.8 71.8- 8.0 10.7---- 0.2------------
1956-10-12 9.5 13.2 6.9 4.3 81.8- 5.0 6.3---- 0.0------------
1956-10-11 7.5 13.4 0.8 -2.4 78.0- 2.3 5.3---- 0.0------------
1956-10-10 4.3 10.4 0.9 -1.9 80.3- 3.0 1.3---- 0.0------------
1956-10-09 7.1 8.8 2.5 0.5 92.8- 5.3 5.3---- 2.9------------
1956-10-08 4.5 9.6 0.1 -2.4 84.5- 5.7 3.7---- 0.0------------
1956-10-07 4.8 10.2 3.4 4.7 90.3- 5.0 7.0---- 0.1------------
1956-10-06 6.4 8.4 5.2 3.3 85.8- 8.0 4.7---- 0.5------------
1956-10-05 7.0 12.4 4.8 5.8 92.0- 7.0 3.7---- 1.7------------
1956-10-04 10.5 15.5 4.6 1.8 82.8- 6.3 2.0---- 2.4------------
1956-10-03 12.1 17.2 7.9 12.7 88.3- 4.7 5.7---- 0.0------------
1956-10-02 16.8 24.8 9.2 7.1 81.0- 4.0 3.7---- 0.5------------
1956-10-01 15.2 23.6 8.9 5.6 83.0- 4.0 3.3---- 0.0------------
1956-09-30 12.0 18.2 8.6 6.3 88.8- 4.7 2.0---- 0.0------------
1956-09-29 14.0 17.6 12.2 14.2 87.5- 7.0 4.7---- 0.0------------
1956-09-28 15.9 19.0 11.9 10.1 79.8- 6.7 7.3---- 0.0------------
1956-09-27 15.8 22.5 11.9 8.5 77.5- 4.3 3.3---- 6.6------------
1956-09-26 16.2 23.9 9.9 7.4 58.3- 0.0 5.0---- 0.0------------
1956-09-25 14.0 22.5 5.0 3.4 66.5- 0.0 3.3---- 0.0------------
1956-09-24 11.3 16.8 7.1 5.0 54.8- 0.0 6.3---- 0.0------------
1956-09-23 13.5 19.3 8.6 6.5 70.3- 0.3 5.3---- 0.0------------
1956-09-22 13.3 20.2 6.4 3.5 67.8- 0.0 5.3---- 0.0------------
1956-09-21 11.8 19.2 4.7 0.9 74.3- 0.3 1.3---- 0.0------------
1956-09-20 9.9 17.2 4.5 0.6 79.5- 2.3 0.3---- 0.0------------
1956-09-19 9.4 16.6 3.6 0.5 80.5- 2.0 0.7---- 0.0------------
1956-09-18 8.5 15.2 2.8 1.2 84.3- 3.0 2.7---- 0.0------------
1956-09-17 8.1 13.4 6.4 8.5 91.5- 5.0 3.3---- 7.6------------
1956-09-16 10.6 15.4 3.1 0.3 77.8- 6.7 5.0---- 0.6------------
1956-09-15 9.5 15.6 6.2 3.2 84.0- 5.7 3.3---- 0.0------------
1956-09-14 10.4 16.9 5.4 4.4 87.5- 1.3 2.7---- 0.0------------
1956-09-13 10.4 15.6 7.9 6.4 83.3- 6.0 6.7---- 2.9------------
1956-09-12 11.6 15.2 9.2 12.7 81.3- 5.7 8.0---- 8.0------------
1956-09-11 14.2 18.0 13.4 12.8 88.8- 8.0 3.7---- 9.7------------
227.6 ms

 

Źródłem pochodzenia danych jest Instytut Meteorologii i Gospodarki Wodnej – Państwowy Instytut Badawczy. Dane Instytutu Meteorologii i Gospodarki Wodnej – Państwowego Instytutu Badawczego zostały przetworzone.

Dane źródłowe można odnaleźć na stronie https://dane.imgw.pl